createdAt,value
2023-01-07T00:01:16.172Z,9.67
2023-01-07T00:03:43.548Z,9.53
2023-01-07T00:06:16.878Z,9.59
2023-01-07T00:08:46.061Z,9.66
2023-01-07T00:11:19.445Z,9.58
2023-01-07T00:13:48.652Z,9.63
2023-01-07T00:16:18.155Z,9.67
2023-01-07T00:18:45.844Z,9.60
2023-01-07T00:21:15.378Z,9.62
2023-01-07T00:23:43.304Z,9.50
2023-01-07T00:26:18.219Z,9.50
2023-01-07T00:28:48.179Z,9.65
2023-01-07T00:31:21.153Z,9.60
2023-01-07T00:33:54.653Z,9.63
2023-01-07T00:36:23.130Z,9.61
2023-01-07T00:38:56.050Z,9.59
2023-01-07T00:41:23.231Z,9.60
2023-01-07T00:43:50.448Z,9.56
2023-01-07T00:46:17.618Z,9.63
2023-01-07T00:48:45.070Z,9.53
2023-01-07T00:51:13.796Z,9.66
2023-01-07T00:53:40.705Z,9.68
2023-01-07T00:56:07.930Z,9.64
2023-01-07T00:58:34.468Z,9.54
2023-01-07T01:01:02.727Z,9.60
2023-01-07T01:03:31.057Z,9.61
2023-01-07T01:06:07.636Z,9.62
2023-01-07T01:08:34.494Z,9.54
2023-01-07T01:11:07.039Z,9.58
2023-01-07T01:13:34.139Z,9.59
2023-01-07T01:16:01.421Z,9.55
2023-01-07T01:18:28.552Z,9.43
2023-01-07T01:20:55.644Z,9.54
2023-01-07T01:23:22.912Z,9.46
2023-01-07T01:25:49.922Z,9.40
2023-01-07T01:28:17.054Z,9.40
2023-01-07T01:30:44.098Z,9.49
2023-01-07T01:33:10.608Z,9.38
2023-01-07T01:35:41.561Z,9.48
2023-01-07T01:38:08.133Z,9.38
2023-01-07T01:40:35.182Z,9.24
2023-01-07T01:43:02.268Z,9.35
2023-01-07T01:45:29.578Z,9.43
2023-01-07T01:48:04.822Z,9.49
2023-01-07T01:50:46.110Z,9.29
2023-01-07T01:53:20.579Z,9.38
2023-01-07T01:55:56.284Z,9.35
2023-01-07T01:58:40.904Z,9.40
2023-01-07T02:01:07.982Z,9.34
2023-01-07T02:03:37.186Z,9.45
2023-01-07T02:06:04.470Z,9.32
2023-01-07T02:08:31.625Z,9.46
2023-01-07T02:11:16.781Z,9.40
2023-01-07T02:13:49.818Z,9.45
2023-01-07T02:16:24.379Z,9.40
2023-01-07T02:19:14.206Z,9.37
2023-01-07T02:21:55.424Z,9.43
2023-01-07T02:24:44.012Z,9.31
2023-01-07T02:27:16.684Z,9.30
2023-01-07T02:29:46.676Z,9.38
2023-01-07T02:35:07.265Z,8.58
2023-01-07T02:37:43.185Z,8.47
2023-01-07T02:40:13.172Z,9.23
2023-01-07T02:42:39.702Z,9.18
2023-01-07T02:45:21.056Z,9.04
2023-01-07T02:47:57.840Z,9.01
2023-01-07T02:50:24.837Z,8.91
2023-01-07T02:52:51.936Z,8.99
2023-01-07T02:55:24.455Z,9.09
2023-01-07T02:58:12.885Z,9.07
2023-01-07T03:01:18.784Z,9.01
2023-01-07T03:04:22.083Z,8.88
2023-01-07T03:07:07.589Z,9.02
2023-01-07T03:09:41.954Z,8.98
2023-01-07T03:12:36.971Z,8.96
2023-01-07T03:15:18.358Z,8.93
2023-01-07T03:18:08.376Z,8.84
2023-01-07T03:20:38.776Z,8.81
2023-01-07T03:23:09.838Z,8.72
2023-01-07T03:25:43.094Z,8.67
2023-01-07T03:28:12.121Z,8.77
2023-01-07T03:30:55.430Z,8.68
2023-01-07T03:33:28.816Z,8.66
2023-01-07T03:35:57.614Z,8.64
2023-01-07T03:38:27.228Z,8.60
2023-01-07T03:40:54.950Z,8.74
2023-01-07T03:43:23.502Z,8.84
2023-01-07T03:45:52.971Z,8.78
2023-01-07T03:48:20.341Z,8.83
2023-01-07T03:50:47.400Z,8.68
2023-01-07T03:53:21.024Z,8.77
2023-01-07T03:55:47.604Z,8.79
2023-01-07T03:58:14.709Z,8.81
2023-01-07T04:00:41.789Z,8.59
2023-01-07T04:03:09.322Z,8.67
2023-01-07T04:05:36.373Z,8.75
2023-01-07T04:08:02.985Z,8.76
2023-01-07T04:10:30.536Z,8.73
2023-01-07T04:12:57.603Z,8.66
2023-01-07T04:15:24.174Z,8.65
2023-01-07T04:17:51.218Z,8.47
2023-01-07T04:20:18.432Z,8.71
2023-01-07T04:22:45.029Z,8.65
2023-01-07T04:25:20.837Z,8.69
2023-01-07T04:27:56.896Z,8.28
2023-01-07T04:30:26.673Z,7.97
2023-01-07T04:32:55.685Z,8.30
2023-01-07T04:35:26.979Z,8.38
2023-01-07T04:37:57.017Z,8.68
2023-01-07T04:40:31.075Z,8.43
2023-01-07T04:43:03.086Z,8.23
2023-01-07T04:45:40.660Z,8.32
2023-01-07T04:48:42.297Z,8.18
2023-01-07T04:51:15.147Z,8.67
2023-01-07T04:53:46.202Z,8.48
2023-01-07T04:56:12.902Z,8.73
2023-01-07T04:58:39.967Z,8.73
2023-01-07T05:01:07.195Z,8.58
2023-01-07T05:03:36.950Z,8.70
2023-01-07T05:06:04.458Z,8.78
2023-01-07T05:08:31.545Z,8.64
2023-01-07T05:10:58.609Z,8.63
2023-01-07T05:13:25.705Z,8.79
2023-01-07T05:15:52.264Z,8.77
2023-01-07T05:18:19.087Z,8.75
2023-01-07T05:23:34.086Z,8.65
2023-01-07T05:26:01.995Z,8.41
2023-01-07T05:28:28.988Z,8.89
2023-01-07T05:30:56.079Z,8.89
2023-01-07T05:33:22.684Z,8.76
2023-01-07T05:35:49.283Z,8.73
2023-01-07T05:38:16.481Z,8.70
2023-01-07T05:40:44.094Z,8.73
2023-01-07T05:43:10.694Z,8.67
2023-01-07T05:45:37.796Z,8.44
2023-01-07T05:48:04.532Z,8.83
2023-01-07T05:53:29.835Z,8.67
2023-01-07T05:56:00.878Z,8.08
2023-01-07T05:58:34.376Z,8.38
2023-01-07T06:01:01.646Z,8.60
2023-01-07T06:03:28.699Z,8.70
2023-01-07T06:05:55.760Z,8.77
2023-01-07T06:08:22.873Z,8.93
2023-01-07T06:10:50.056Z,8.56
2023-01-07T06:13:17.070Z,8.77
2023-01-07T06:15:44.212Z,8.63
2023-01-07T06:18:11.259Z,8.84
2023-01-07T06:20:38.808Z,8.71
2023-01-07T06:23:05.423Z,8.65
2023-01-07T06:25:32.069Z,8.71
2023-01-07T06:27:59.125Z,8.71
2023-01-07T06:30:26.303Z,8.67
2023-01-07T06:32:54.065Z,8.70
2023-01-07T06:35:20.597Z,8.65
2023-01-07T06:37:48.120Z,8.64
2023-01-07T06:40:15.318Z,8.59
2023-01-07T06:42:41.882Z,8.50
2023-01-07T06:45:09.567Z,8.50
2023-01-07T06:47:36.102Z,8.55
2023-01-07T06:50:03.325Z,8.44
2023-01-07T06:52:29.866Z,8.48
2023-01-07T06:54:57.450Z,8.45
2023-01-07T06:57:24.140Z,8.38
2023-01-07T06:59:50.773Z,8.39
2023-01-07T07:02:23.489Z,8.28
2023-01-07T07:04:50.287Z,8.03
2023-01-07T07:07:18.177Z,8.23
2023-01-07T07:09:46.746Z,8.11
2023-01-07T07:12:14.251Z,8.29
2023-01-07T07:14:40.796Z,8.19
2023-01-07T07:17:07.369Z,8.06
2023-01-07T07:19:33.982Z,7.82
2023-01-07T07:22:00.596Z,8.14
2023-01-07T07:24:27.408Z,8.15
2023-01-07T07:26:54.044Z,8.00
2023-01-07T07:29:21.879Z,8.06
2023-01-07T07:31:48.613Z,8.05
2023-01-07T07:34:15.296Z,8.09
2023-01-07T07:36:41.899Z,7.98
2023-01-07T07:39:08.495Z,8.04
2023-01-07T07:41:35.121Z,8.00
2023-01-07T07:44:01.643Z,7.90
2023-01-07T07:46:28.246Z,7.90
2023-01-07T07:48:54.913Z,7.63
2023-01-07T07:51:21.523Z,7.97
2023-01-07T07:53:48.058Z,7.99
2023-01-07T07:56:14.711Z,7.98
2023-01-07T07:58:43.103Z,7.97
2023-01-07T08:01:10.086Z,8.02
2023-01-07T08:03:36.934Z,8.11
2023-01-07T08:06:05.185Z,8.06
2023-01-07T08:08:32.295Z,8.20
2023-01-07T08:10:59.165Z,8.15
2023-01-07T08:13:25.951Z,8.18
2023-01-07T08:15:53.042Z,8.22
2023-01-07T08:18:19.890Z,8.34
2023-01-07T08:20:47.463Z,8.23
2023-01-07T08:23:14.556Z,8.28
2023-01-07T08:25:41.791Z,8.37
2023-01-07T08:28:10.882Z,8.37
2023-01-07T08:30:37.952Z,8.51
2023-01-07T08:33:06.588Z,8.38
2023-01-07T08:35:33.952Z,8.55
2023-01-07T08:38:09.015Z,8.65
2023-01-07T08:40:36.488Z,8.77
2023-01-07T08:43:05.980Z,8.75
2023-01-07T08:45:32.785Z,8.78
2023-01-07T08:47:59.758Z,8.61
2023-01-07T08:50:31.865Z,8.81
2023-01-07T08:52:59.494Z,8.90
2023-01-07T08:55:26.580Z,8.87
2023-01-07T08:57:53.322Z,8.84
2023-01-07T09:00:22.878Z,8.69
2023-01-07T09:02:49.567Z,8.82
2023-01-07T09:05:16.407Z,8.79
2023-01-07T09:07:43.741Z,8.94
2023-01-07T09:10:11.251Z,8.99
2023-01-07T09:12:38.295Z,9.01
2023-01-07T09:15:05.355Z,8.92
2023-01-07T09:17:31.934Z,8.96
2023-01-07T09:19:58.871Z,9.02
2023-01-07T09:22:25.455Z,8.96
2023-01-07T09:24:52.981Z,9.00
2023-01-07T09:27:19.570Z,8.99
2023-01-07T09:29:46.191Z,9.16
2023-01-07T09:32:13.196Z,9.18
2023-01-07T09:34:39.740Z,9.13
2023-01-07T09:37:06.948Z,9.07
2023-01-07T09:39:33.541Z,9.09
2023-01-07T09:42:15.240Z,9.10
2023-01-07T09:45:00.203Z,9.10
2023-01-07T09:47:29.624Z,9.06
2023-01-07T09:50:18.870Z,9.19
2023-01-07T09:52:50.631Z,9.14
2023-01-07T09:55:20.673Z,9.11
2023-01-07T09:57:48.259Z,9.12
2023-01-07T10:00:22.734Z,9.22
2023-01-07T10:03:24.570Z,9.14
2023-01-07T10:06:16.047Z,9.22
2023-01-07T10:09:11.631Z,9.18
2023-01-07T10:11:49.356Z,9.32
2023-01-07T10:14:18.709Z,9.27
2023-01-07T10:17:04.093Z,9.29
2023-01-07T10:19:52.483Z,9.30
2023-01-07T10:22:25.320Z,9.44
2023-01-07T10:24:59.889Z,9.40
2023-01-07T10:27:41.057Z,9.48
2023-01-07T10:30:27.251Z,9.56
2023-01-07T10:33:03.370Z,9.59
2023-01-07T10:35:33.850Z,9.50
2023-01-07T10:38:04.254Z,9.45
2023-01-07T10:40:30.929Z,9.61
2023-01-07T10:43:23.547Z,9.66
2023-01-07T10:46:17.854Z,9.74
2023-01-07T10:49:16.515Z,9.80
2023-01-07T10:51:46.616Z,9.79
2023-01-07T10:54:23.743Z,9.71
2023-01-07T10:56:58.095Z,9.90
2023-01-07T10:59:25.405Z,9.81
2023-01-07T11:01:55.552Z,9.77
2023-01-07T11:04:23.265Z,9.85
2023-01-07T11:06:58.972Z,9.88
2023-01-07T11:09:31.340Z,9.84
2023-01-07T11:12:19.981Z,9.96
2023-01-07T11:14:47.595Z,9.86
2023-01-07T11:17:31.705Z,9.95
2023-01-07T11:19:58.230Z,9.96
2023-01-07T11:22:27.665Z,10.00
2023-01-07T11:24:56.311Z,10.06
2023-01-07T11:27:26.077Z,10.10
2023-01-07T11:30:03.342Z,10.12
2023-01-07T11:32:40.339Z,10.02
2023-01-07T11:35:08.617Z,10.05
2023-01-07T11:37:41.000Z,10.17
2023-01-07T11:40:14.142Z,10.23
2023-01-07T11:42:54.311Z,10.09
2023-01-07T11:46:20.254Z,10.19
2023-01-07T11:48:46.827Z,10.20
2023-01-07T11:51:13.469Z,10.10
2023-01-07T11:53:50.936Z,10.18
2023-01-07T11:56:20.736Z,10.15
2023-01-07T11:58:52.439Z,10.08
2023-01-07T12:01:22.416Z,10.07
2023-01-07T12:03:51.818Z,10.00
2023-01-07T12:06:26.876Z,10.01
2023-01-07T12:09:11.846Z,10.06
2023-01-07T12:11:42.226Z,9.97
2023-01-07T12:14:19.343Z,10.06
2023-01-07T12:16:47.151Z,10.01
2023-01-07T12:19:22.773Z,10.03
2023-01-07T12:22:28.944Z,10.14
2023-01-07T12:25:23.690Z,10.09
2023-01-07T12:28:02.312Z,10.03
2023-01-07T12:30:33.751Z,10.07
2023-01-07T12:33:52.195Z,10.10
2023-01-07T12:36:30.227Z,9.91
2023-01-07T12:39:00.998Z,9.95
2023-01-07T12:41:34.561Z,9.87
2023-01-07T12:44:06.310Z,9.92
2023-01-07T12:46:40.561Z,9.91
2023-01-07T12:49:25.900Z,10.00
2023-01-07T12:52:43.523Z,9.94
2023-01-07T12:55:16.748Z,9.90
2023-01-07T12:57:49.928Z,9.89
2023-01-07T13:00:26.853Z,9.73
2023-01-07T13:03:00.600Z,9.91
2023-01-07T13:05:57.161Z,9.89
2023-01-07T13:08:32.128Z,9.92
2023-01-07T13:11:12.549Z,9.76
2023-01-07T13:13:49.551Z,9.71
2023-01-07T13:16:16.294Z,9.86
2023-01-07T13:18:42.992Z,9.71
2023-01-07T13:21:14.708Z,9.66
2023-01-07T13:24:19.114Z,9.60
2023-01-07T13:27:03.722Z,9.62
2023-01-07T13:29:47.100Z,9.65
2023-01-07T13:32:20.212Z,9.72
2023-01-07T13:35:09.385Z,9.73
2023-01-07T13:37:51.152Z,9.71
2023-01-07T13:40:36.857Z,9.69
2023-01-07T13:43:22.371Z,9.70
2023-01-07T13:45:51.506Z,9.67
2023-01-07T13:48:22.259Z,9.63
2023-01-07T13:51:04.290Z,9.68
2023-01-07T13:53:46.769Z,9.70
2023-01-07T13:56:19.783Z,9.67
2023-01-07T13:58:50.234Z,9.61
2023-01-07T14:01:19.558Z,9.67
2023-01-07T14:04:09.185Z,9.86
2023-01-07T14:06:41.581Z,9.88
2023-01-07T14:09:08.091Z,9.77
2023-01-07T14:11:36.069Z,9.67
2023-01-07T14:14:21.303Z,9.66
2023-01-07T14:17:09.276Z,9.60
2023-01-07T14:19:38.785Z,9.64
2023-01-07T14:22:18.131Z,9.62
2023-01-07T14:24:47.947Z,9.62
2023-01-07T14:27:45.579Z,9.57
2023-01-07T14:30:23.408Z,9.69
2023-01-07T14:33:06.071Z,9.59
2023-01-07T14:35:43.259Z,9.63
2023-01-07T14:38:40.164Z,9.37
2023-01-07T14:41:11.449Z,9.49
2023-01-07T14:43:41.235Z,9.56
2023-01-07T14:46:09.785Z,9.61
2023-01-07T14:48:37.597Z,9.65
2023-01-07T14:51:43.984Z,9.66
2023-01-07T14:54:40.335Z,9.62
2023-01-07T14:57:28.158Z,9.60
2023-01-07T15:00:09.580Z,9.53
2023-01-07T15:02:57.710Z,9.61
2023-01-07T15:05:56.586Z,9.57
2023-01-07T15:08:45.297Z,9.48
2023-01-07T15:11:43.625Z,9.60
2023-01-07T15:15:03.048Z,9.52
2023-01-07T15:17:30.090Z,9.47
2023-01-07T15:19:57.878Z,9.39
2023-01-07T15:22:47.951Z,9.48
2023-01-07T15:25:33.449Z,9.50
2023-01-07T15:28:07.285Z,9.45
2023-01-07T15:30:52.388Z,9.40
2023-01-07T15:33:37.080Z,9.51
2023-01-07T15:36:08.701Z,9.52
2023-01-07T15:38:42.712Z,9.48
2023-01-07T15:41:26.612Z,9.43
2023-01-07T15:43:54.110Z,9.42
2023-01-07T15:46:24.293Z,9.26
2023-01-07T15:49:13.222Z,9.43
2023-01-07T15:51:42.339Z,9.35
2023-01-07T15:54:26.378Z,9.37
2023-01-07T15:56:57.691Z,9.26
2023-01-07T15:59:34.202Z,9.28
2023-01-07T16:02:22.110Z,9.24
2023-01-07T16:04:53.170Z,9.19
2023-01-07T16:07:32.993Z,9.10
2023-01-07T16:10:00.679Z,9.06
2023-01-07T16:12:36.187Z,9.09
2023-01-07T16:15:21.407Z,9.00
2023-01-07T16:17:52.411Z,9.16
2023-01-07T16:20:27.555Z,8.91
2023-01-07T16:23:10.200Z,9.20
2023-01-07T16:25:43.665Z,9.10
2023-01-07T16:28:17.026Z,9.06
2023-01-07T16:30:45.064Z,9.13
2023-01-07T16:33:16.942Z,8.98
2023-01-07T16:35:46.394Z,9.13
2023-01-07T16:38:15.429Z,9.12
2023-01-07T16:40:42.400Z,9.20
2023-01-07T16:43:43.751Z,9.22
2023-01-07T16:46:13.345Z,9.09
2023-01-07T16:48:39.907Z,8.91
2023-01-07T16:51:35.604Z,8.84
2023-01-07T16:54:23.366Z,8.72
2023-01-07T16:56:52.770Z,8.64
2023-01-07T16:59:21.940Z,8.31
2023-01-07T17:01:49.140Z,8.56
2023-01-07T17:04:23.416Z,8.52
2023-01-07T17:06:50.959Z,8.49
2023-01-07T17:09:23.106Z,8.60
2023-01-07T17:11:51.808Z,8.53
2023-01-07T17:14:33.755Z,8.67
2023-01-07T17:17:02.012Z,8.73
2023-01-07T17:19:37.156Z,8.72
2023-01-07T17:22:04.792Z,8.60
2023-01-07T17:24:31.436Z,8.71
2023-01-07T17:27:02.886Z,8.58
2023-01-07T17:29:36.125Z,8.66
2023-01-07T17:32:05.864Z,8.59
2023-01-07T17:34:32.431Z,8.63
2023-01-07T17:36:59.469Z,8.43
2023-01-07T17:39:26.508Z,8.30
2023-01-07T17:42:11.672Z,8.42
2023-01-07T17:44:38.343Z,8.28
2023-01-07T17:47:06.415Z,8.37
2023-01-07T17:49:35.869Z,7.81
2023-01-07T17:52:05.958Z,7.98
2023-01-07T17:54:47.063Z,8.00
2023-01-07T17:57:20.208Z,8.45
2023-01-07T17:59:48.090Z,7.69
2023-01-07T18:02:19.279Z,7.86
2023-01-07T18:04:48.899Z,7.86
2023-01-07T18:07:15.852Z,8.34
2023-01-07T18:09:43.191Z,8.35
2023-01-07T18:12:31.048Z,8.24
2023-01-07T18:15:04.982Z,8.32
2023-01-07T18:17:32.056Z,8.28
2023-01-07T18:19:58.633Z,8.20
2023-01-07T18:22:25.507Z,8.31
2023-01-07T18:24:52.247Z,8.37
2023-01-07T18:27:19.081Z,8.20
2023-01-07T18:29:45.681Z,8.31
2023-01-07T18:32:12.231Z,8.37
2023-01-07T18:34:39.021Z,8.19
2023-01-07T18:37:06.474Z,8.37
2023-01-07T18:39:33.284Z,8.40
2023-01-07T18:41:59.937Z,8.26
2023-01-07T18:44:26.620Z,8.27
2023-01-07T18:46:53.940Z,8.23
2023-01-07T18:49:21.095Z,8.22
2023-01-07T18:51:47.960Z,8.11
2023-01-07T18:54:15.767Z,8.18
2023-01-07T18:56:43.152Z,8.28
2023-01-07T18:59:10.365Z,8.26
2023-01-07T19:01:37.597Z,8.25
2023-01-07T19:04:06.673Z,8.32
2023-01-07T19:06:33.431Z,7.92
2023-01-07T19:09:00.060Z,8.23
2023-01-07T19:11:27.607Z,8.32
2023-01-07T19:13:54.179Z,8.26
2023-01-07T19:16:21.367Z,8.20
2023-01-07T19:18:48.550Z,8.31
2023-01-07T19:21:15.201Z,8.43
2023-01-07T19:23:41.865Z,8.38
2023-01-07T19:26:11.449Z,8.41
2023-01-07T19:28:38.030Z,8.43
2023-01-07T19:31:06.699Z,8.31
2023-01-07T19:33:33.974Z,8.43
2023-01-07T19:36:02.335Z,8.37
2023-01-07T19:38:29.456Z,8.38
2023-01-07T19:40:56.839Z,8.45
2023-01-07T19:43:23.896Z,8.43
2023-01-07T19:45:57.380Z,8.49
2023-01-07T19:48:24.931Z,8.43
2023-01-07T19:50:57.039Z,8.42
2023-01-07T19:53:24.619Z,8.51
2023-01-07T19:55:53.018Z,8.44
2023-01-07T19:58:22.736Z,8.62
2023-01-07T20:00:50.153Z,8.61
2023-01-07T20:03:17.237Z,8.56
2023-01-07T20:05:44.867Z,8.64
2023-01-07T20:08:11.457Z,8.65
2023-01-07T20:10:37.981Z,8.52
2023-01-07T20:13:06.380Z,8.60
2023-01-07T20:15:32.963Z,8.65
2023-01-07T20:17:59.473Z,8.59
2023-01-07T20:20:26.115Z,8.57
2023-01-07T20:22:52.614Z,8.77
2023-01-07T20:25:19.687Z,8.65
2023-01-07T20:27:46.715Z,8.69
2023-01-07T20:30:14.230Z,8.68
2023-01-07T20:32:41.273Z,8.63
2023-01-07T20:35:09.054Z,8.54
2023-01-07T20:37:35.777Z,8.50
2023-01-07T20:40:02.826Z,8.25
2023-01-07T20:42:31.765Z,8.44
2023-01-07T20:44:58.535Z,8.47
2023-01-07T20:47:25.603Z,8.41
2023-01-07T20:49:52.728Z,8.33
2023-01-07T20:52:19.784Z,8.31
2023-01-07T20:54:47.487Z,8.28
2023-01-07T20:57:14.259Z,8.23
2023-01-07T20:59:40.818Z,8.24
2023-01-07T21:02:13.571Z,8.42
2023-01-07T21:04:41.082Z,8.34
2023-01-07T21:07:08.386Z,8.26
2023-01-07T21:09:35.912Z,8.38
2023-01-07T21:12:02.721Z,8.00
2023-01-07T21:14:29.405Z,8.30
2023-01-07T21:16:55.924Z,8.25
2023-01-07T21:19:22.675Z,8.42
2023-01-07T21:21:50.642Z,8.41
2023-01-07T21:24:17.569Z,8.43
2023-01-07T21:26:44.269Z,8.43
2023-01-07T21:29:10.934Z,8.40
2023-01-07T21:31:37.542Z,8.54
2023-01-07T21:34:04.311Z,8.58
2023-01-07T21:36:31.273Z,8.56
2023-01-07T21:39:00.376Z,8.59
2023-01-07T21:41:28.236Z,8.50
2023-01-07T21:43:55.841Z,8.54
2023-01-07T21:46:25.726Z,8.48
2023-01-07T21:48:52.907Z,8.35
2023-01-07T21:51:25.189Z,8.60
2023-01-07T21:53:55.732Z,8.41
2023-01-07T21:56:23.964Z,8.53
2023-01-07T21:58:51.000Z,8.46
2023-01-07T22:01:18.907Z,8.51
2023-01-07T22:03:48.405Z,8.58
2023-01-07T22:06:19.879Z,8.62
2023-01-07T22:08:47.411Z,8.40
2023-01-07T22:11:15.356Z,8.56
2023-01-07T22:13:42.152Z,8.41
2023-01-07T22:16:09.878Z,8.57
2023-01-07T22:18:36.917Z,8.44
2023-01-07T22:21:04.111Z,8.69
2023-01-07T22:23:30.679Z,8.69
2023-01-07T22:26:03.738Z,8.69
2023-01-07T22:28:32.490Z,8.65
2023-01-07T22:31:02.860Z,8.79
2023-01-07T22:33:29.479Z,8.60
2023-01-07T22:35:56.540Z,8.89
2023-01-07T22:38:25.309Z,8.68
2023-01-07T22:40:52.368Z,8.63
2023-01-07T22:43:20.598Z,8.83
2023-01-07T22:46:02.749Z,8.85
2023-01-07T22:48:34.249Z,8.94
2023-01-07T22:51:05.115Z,8.91
2023-01-07T22:53:33.301Z,9.06
2023-01-07T22:56:01.220Z,8.83
2023-01-07T22:58:28.268Z,9.00
2023-01-07T23:01:07.226Z,8.99
2023-01-07T23:03:33.945Z,8.76
2023-01-07T23:06:00.680Z,8.54
2023-01-07T23:08:27.851Z,8.89
2023-01-07T23:10:54.936Z,8.93
2023-01-07T23:13:21.626Z,8.85
2023-01-07T23:15:48.227Z,8.86
2023-01-07T23:18:15.311Z,8.77
2023-01-07T23:20:43.465Z,8.79
2023-01-07T23:23:12.109Z,8.67
2023-01-07T23:25:47.247Z,8.62
2023-01-07T23:28:14.366Z,8.64
2023-01-07T23:30:41.701Z,8.47
2023-01-07T23:33:09.148Z,8.49
2023-01-07T23:35:36.467Z,8.43
2023-01-07T23:38:04.154Z,8.33
2023-01-07T23:40:31.321Z,8.41
2023-01-07T23:42:58.342Z,8.39
2023-01-07T23:45:25.443Z,8.34
2023-01-07T23:47:52.690Z,8.40
2023-01-07T23:50:20.227Z,8.38
2023-01-07T23:52:47.721Z,8.29
2023-01-07T23:55:14.739Z,8.30
2023-01-07T23:57:42.288Z,8.26
